Orlando, Oklahoma
Current Conditions -  °F | °C
As of 12:53 AM on Friday 28 Nov 2014 (Local Time) from KSWO Reporting Station
Clear Clear  
Wind Chill: 35°   Ceiling: Unl
Heat Index: 41°   Visibility: 10mi
Dew Point: 24°   Wind: 10mph
Humidity: 51%   Direction: 170°S
Pressure: 30.21"   Gusts: NA
Location:  36.15°N, 97.38°W
Report Text: KSWO 280653Z AUTO 17009KT 10SM CLR 05/M04 A3021 RMK AO2 SLP230 T00501044
Loading
Personal Weather Stations






























Interactive Weather Map New forecast layout! Learn more

10-Day Weather Forecast

Advertisements
Track Severe Weather on mobile